Weather History for KJSV - March, 2013

Change the Weather History Date:

Monday, March 4, 2013

  Actual Average Record
Temperature  
Mean Temperature 58 °F -  
Max Temperature 73 °F 61 °F 81 °F (1967)
Min Temperature 44 °F 36 °F 8 °F (2002)
Degree Days  
Heating Degree Days 6    
Growing Degree Days 8 (Base 50)    
Moisture  
Dew Point 40 °F    
Average Humidity 54    
Maximum Humidity 77    
Minimum Humidity 31    
Precipitation  
Precipitation 0.00 in - - ()
Sea Level Pressure  
Sea Level Pressure 29.68 in    
Wind  
Wind Speed 10 mph (ESE)    
Max Wind Speed 20 mph    
Max Gust Speed 25 mph    
Visibility 10 miles    
Events      
Averages and records for this station are not official NWS values.
T = Trace of Precipitation, MM = Missing Value Source: NWS Daily Summary

Daily Weather History Graph

Daily Weather History Graph

Search for Another Location

Airport or City:

Trip Planner

Search our weather history database for the weather conditions in past years. The results will help you decide how hot, cold, wet, or windy it might be!

Date:

Astronomy

Mar. 04, 2013 Rise Set
Actual Time 6:44 AM CST 6:17 PM CST
Civil Twilight 6:19 AM CST 6:43 PM CST
Nautical Twilight 5:49 AM CST 7:12 PM CST
Astronomical Twilight 5:20 AM CST 7:42 PM CST
Moon 12:46 AM CST 11:08 AM CST
Length of Visible Light 12h 23m
Length of Day
11h 32m
Waning Gibbous, 52% of the Moon is Illuminated
Mar 4
Waning Gibbous
Mar 4
Last Quarter
Mar 11
New
Mar 19
First Quarter
Mar 27
Full

Hourly Weather History & Observations

Time (CST) Temp. Windchill Dew Point Humidity Pressure Visibility Wind Dir Wind Speed Gust Speed Precip Events Conditions
12:15 AM 48.2 °F - 32.0 °F 54% 29.79 in 10.0 mi East 12.7 mph - N/A   Clear
12:35 AM 46.4 °F 41.1 °F 32.0 °F 57% 29.79 in 10.0 mi East 11.5 mph 16.1 mph N/A   Clear
12:55 AM 46.4 °F 41.5 °F 32.0 °F 57% 29.79 in 10.0 mi East 10.4 mph - N/A   Clear
1:15 AM 46.4 °F 41.1 °F 32.0 °F 57% 29.78 in 10.0 mi East 11.5 mph - N/A   Clear
1:55 AM 46.4 °F 40.4 °F 32.0 °F 57% 29.75 in 10.0 mi East 13.8 mph - N/A   Clear
2:15 AM 44.6 °F 38.4 °F 32.0 °F 61% 29.75 in 10.0 mi East 12.7 mph - N/A   Clear
2:35 AM 44.6 °F 38.8 °F 32.0 °F 61% 29.73 in 10.0 mi East 11.5 mph - N/A   Clear
2:55 AM 44.6 °F 38.4 °F 32.0 °F 61% 29.72 in 10.0 mi East 12.7 mph 17.3 mph N/A   Clear
3:35 AM 44.6 °F 38.8 °F 32.0 °F 61% 29.71 in 10.0 mi East 11.5 mph - N/A   Clear
3:55 AM 44.6 °F 38.8 °F 32.0 °F 61% 29.70 in 10.0 mi East 11.5 mph - N/A   Clear
4:15 AM 44.6 °F 40.2 °F 32.0 °F 61% 29.70 in 10.0 mi East 8.1 mph - N/A   Clear
4:35 AM 44.6 °F 39.2 °F 32.0 °F 61% 29.70 in 10.0 mi East 10.4 mph 16.1 mph N/A   Clear
5:15 AM 44.6 °F 39.2 °F 32.0 °F 61% 29.70 in 10.0 mi East 10.4 mph - N/A   Clear
5:35 AM 44.6 °F 40.2 °F 32.0 °F 61% 29.70 in 10.0 mi East 8.1 mph - N/A   Clear
5:55 AM 44.6 °F 39.2 °F 32.0 °F 61% 29.69 in 10.0 mi East 10.4 mph - N/A   Clear
6:15 AM 44.6 °F 39.7 °F 32.0 °F 61% 29.69 in 10.0 mi East 9.2 mph - N/A   Clear
6:35 AM 44.6 °F 38.8 °F 32.0 °F 61% 29.69 in 10.0 mi East 11.5 mph - N/A   Clear
6:55 AM 44.6 °F 38.8 °F 33.8 °F 66% 29.69 in 10.0 mi East 11.5 mph - N/A   Clear
7:15 AM 44.6 °F 40.2 °F 33.8 °F 66% 29.70 in 10.0 mi East 8.1 mph - N/A   Clear
7:35 AM 44.6 °F 39.7 °F 33.8 °F 66% 29.68 in 10.0 mi East 9.2 mph - N/A   Clear
7:55 AM 46.4 °F 41.9 °F 33.8 °F 62% 29.68 in 10.0 mi East 9.2 mph - N/A   Clear
8:15 AM 50.0 °F - 35.6 °F 58% 29.68 in 10.0 mi East 8.1 mph - N/A   Clear
8:35 AM 50.0 °F - 35.6 °F 58% 29.68 in 10.0 mi East 8.1 mph - N/A   Clear
8:55 AM 51.8 °F - 35.6 °F 54% 29.68 in 10.0 mi East 9.2 mph - N/A   Clear
9:15 AM 53.6 °F - 37.4 °F 54% 29.68 in 10.0 mi East 5.8 mph - N/A   Clear
9:35 AM 57.2 °F - 39.2 °F 51% 29.68 in 10.0 mi ESE 8.1 mph - N/A   Clear
9:55 AM 59.0 °F - 41.0 °F 51% 29.67 in 10.0 mi SSE 10.4 mph - N/A   Clear
10:15 AM 60.8 °F - 42.8 °F 52% 29.67 in 10.0 mi South 9.2 mph - N/A   Clear
10:35 AM 60.8 °F - 42.8 °F 52% 29.66 in 10.0 mi SE 8.1 mph 16.1 mph N/A   Clear
10:55 AM 62.6 °F - 42.8 °F 48% 29.66 in 10.0 mi South 10.4 mph 21.9 mph N/A   Clear
11:15 AM 64.4 °F - 42.8 °F 45% 29.65 in 10.0 mi South 13.8 mph - N/A   Clear
11:35 AM 64.4 °F - 44.6 °F 49% 29.65 in 10.0 mi South 12.7 mph 18.4 mph N/A   Clear
11:55 AM 64.4 °F - 44.6 °F 49% 29.65 in 10.0 mi SSE 15.0 mph 19.6 mph N/A   Clear
12:15 PM 64.4 °F - 44.6 °F 49% 29.64 in 10.0 mi SSE 9.2 mph 18.4 mph N/A   Clear
12:35 PM 66.2 °F - 42.8 °F 43% 29.63 in 10.0 mi South 5.8 mph 17.3 mph N/A   Clear
12:55 PM 68.0 °F - 42.8 °F 40% 29.62 in 10.0 mi South 11.5 mph - N/A   Scattered Clouds
1:15 PM 68.0 °F - 44.6 °F 43% 29.62 in 10.0 mi South 11.5 mph - N/A   Scattered Clouds
1:35 PM 66.2 °F - 44.6 °F 46% 29.61 in 10.0 mi SSE 9.2 mph 18.4 mph N/A   Scattered Clouds
1:55 PM 69.8 °F - 44.6 °F 40% 29.61 in 10.0 mi SSE 9.2 mph - N/A   Scattered Clouds
2:15 PM 69.8 °F - 42.8 °F 38% 29.61 in 10.0 mi South 9.2 mph - N/A   Clear
2:35 PM 71.6 °F - 42.8 °F 35% 29.60 in 10.0 mi SSE 8.1 mph - N/A   Clear
2:55 PM 71.6 °F - 44.6 °F 38% 29.60 in 10.0 mi South 4.6 mph - N/A   Clear
3:15 PM 71.6 °F - 44.6 °F 38% 29.61 in 10.0 mi South 5.8 mph - N/A   Clear
3:35 PM 71.6 °F - 42.8 °F 35% 29.60 in 10.0 mi SSW 4.6 mph - N/A   Clear
3:55 PM 73.4 °F - 42.8 °F 33% 29.60 in 10.0 mi SSW 5.8 mph - N/A   Clear
4:15 PM 73.4 °F - 41.0 °F 31% 29.60 in 10.0 mi South 8.1 mph - N/A   Clear
4:35 PM 73.4 °F - 41.0 °F 31% 29.60 in 10.0 mi South 8.1 mph - N/A   Clear
4:55 PM 73.4 °F - 41.0 °F 31% 29.60 in 10.0 mi South 3.5 mph - N/A   Clear
5:35 PM 71.6 °F - 41.0 °F 33% 29.61 in 10.0 mi ESE 3.5 mph - N/A   Clear
5:55 PM 71.6 °F - 41.0 °F 33% 29.62 in 7.0 mi Calm Calm - N/A   Clear
6:15 PM 66.2 °F - 46.4 °F 49% 29.63 in 10.0 mi East 10.4 mph - N/A   Clear
6:35 PM 64.4 °F - 46.4 °F 52% 29.65 in 10.0 mi ENE 8.1 mph - N/A   Clear
6:55 PM 62.6 °F - 46.4 °F 55% 29.66 in 10.0 mi ENE 11.5 mph - N/A   Clear
7:15 PM 60.8 °F - 46.4 °F 59% 29.67 in 10.0 mi ENE 8.1 mph - N/A   Clear
7:35 PM 59.0 °F - 46.4 °F 63% 29.67 in 10.0 mi ENE 8.1 mph - N/A   Clear
7:55 PM 59.0 °F - 46.4 °F 63% 29.69 in 10.0 mi ENE 4.6 mph - N/A   Clear
8:15 PM 59.0 °F - 46.4 °F 63% 29.70 in 10.0 mi East 5.8 mph - N/A   Clear
8:35 PM 57.2 °F - 46.4 °F 67% 29.70 in 10.0 mi East 5.8 mph - N/A   Clear
9:15 PM 55.4 °F - 46.4 °F 72% 29.71 in 10.0 mi Calm Calm - N/A   Clear
9:35 PM 53.6 °F - 46.4 °F 77% 29.71 in 10.0 mi Calm Calm - N/A   Clear
9:55 PM 53.6 °F - 46.4 °F 77% 29.72 in 10.0 mi Calm Calm - N/A   Clear
10:15 PM 53.6 °F - 46.4 °F 77% 29.75 in 10.0 mi NW 9.2 mph - N/A   Clear
10:35 PM 55.4 °F - 44.6 °F 67% 29.77 in 10.0 mi NW 9.2 mph 16.1 mph N/A   Scattered Clouds
10:55 PM 53.6 °F - 42.8 °F 67% 29.79 in 10.0 mi NNW 12.7 mph - N/A   Scattered Clouds
11:15 PM 51.8 °F - 41.0 °F 67% 29.82 in 10.0 mi NW 13.8 mph 18.4 mph N/A   Scattered Clouds
11:35 PM 51.8 °F - 39.2 °F 62% 29.82 in 10.0 mi NNW 17.3 mph 21.9 mph N/A   Scattered Clouds
11:55 PM 51.8 °F - 37.4 °F 58% 29.90 in 10.0 mi WNW 19.6 mph 25.3 mph N/A   Scattered Clouds